DLH2GJ EDDF-EDDB
Flight info
| Callsign | DLH2GJ |
|---|---|
| Flight time | 0h 48m |
| Altitude | 31000 |
| Route | TOBAK3W/25C TOBAK N858 SWALM T201 TAMEB T278 KLF KLF06R |
| Aircraft | A321/L-SDE3/E |
Departure
| Time | 2026-05-07 16:40 |
|---|---|
| Airport | Frankfurt Main Airport (EDDF) |
Arrival
| Time | 2026-05-07 17:28 |
|---|---|
| Airport | Berlin Brandenburg Airport (EDDB) |
| Time | Latitude | Longitude | Altitude | Speed | Heading |
|---|---|---|---|---|---|
| 2026-05-07 15:52 | 50.04431 | 8.56329 | 362 ft | 0 kts | 167° |
| 2026-05-07 15:58 | 50.04432 | 8.56329 | 356 ft | 0 kts | 167° |
| 2026-05-07 16:08 | 50.04432 | 8.56328 | 356 ft | 0 kts | 167° |
| 2026-05-07 16:09 | 50.04432 | 8.56329 | 356 ft | 0 kts | 167° |
| 2026-05-07 16:09 | 50.04432 | 8.56328 | 356 ft | 0 kts | 167° |
| 2026-05-07 16:23 | 50.04443 | 8.56324 | 364 ft | 4 kts | 168° |
| 2026-05-07 16:24 | 50.04465 | 8.56316 | 359 ft | 3 kts | 167° |
| 2026-05-07 16:24 | 50.04490 | 8.56317 | 356 ft | 4 kts | 213° |
| 2026-05-07 16:24 | 50.04507 | 8.56346 | 362 ft | 4 kts | 244° |
| 2026-05-07 16:24 | 50.04515 | 8.56378 | 360 ft | 1 kts | 249° |
| 2026-05-07 16:27 | 50.04501 | 8.56320 | 358 ft | 10 kts | 249° |
| 2026-05-07 16:28 | 50.04482 | 8.56242 | 362 ft | 13 kts | 249° |
| 2026-05-07 16:28 | 50.04448 | 8.56097 | 363 ft | 16 kts | 249° |
| 2026-05-07 16:28 | 50.04373 | 8.56035 | 363 ft | 15 kts | 155° |
| 2026-05-07 16:28 | 50.04342 | 8.56056 | 358 ft | 0 kts | 158° |
| 2026-05-07 16:29 | 50.04330 | 8.56063 | 357 ft | 6 kts | 160° |
| 2026-05-07 16:29 | 50.04324 | 8.56067 | 356 ft | 0 kts | 159° |
| 2026-05-07 16:29 | 50.04294 | 8.56107 | 359 ft | 11 kts | 120° |
| 2026-05-07 16:29 | 50.04272 | 8.56221 | 364 ft | 13 kts | 147° |
| 2026-05-07 16:30 | 50.04177 | 8.56276 | 359 ft | 12 kts | 159° |
| 2026-05-07 16:30 | 50.04155 | 8.56393 | 360 ft | 15 kts | 68° |
| 2026-05-07 16:30 | 50.04193 | 8.56554 | 359 ft | 17 kts | 70° |
| 2026-05-07 16:30 | 50.04233 | 8.56723 | 359 ft | 16 kts | 70° |
| 2026-05-07 16:31 | 50.04272 | 8.56888 | 361 ft | 18 kts | 69° |
| 2026-05-07 16:31 | 50.04320 | 8.57085 | 368 ft | 20 kts | 70° |
| 2026-05-07 16:31 | 50.04372 | 8.57307 | 367 ft | 23 kts | 69° |
| 2026-05-07 16:31 | 50.04432 | 8.57556 | 365 ft | 26 kts | 70° |
| 2026-05-07 16:32 | 50.04495 | 8.57822 | 365 ft | 28 kts | 70° |
| 2026-05-07 16:32 | 50.04565 | 8.58116 | 365 ft | 31 kts | 70° |
| 2026-05-07 16:32 | 50.04623 | 8.58357 | 370 ft | 20 kts | 70° |
| 2026-05-07 16:32 | 50.04658 | 8.58527 | 374 ft | 12 kts | 92° |
| 2026-05-07 16:33 | 50.04599 | 8.58588 | 373 ft | 0 kts | 162° |
| 2026-05-07 16:33 | 50.04598 | 8.58589 | 372 ft | 0 kts | 162° |
| 2026-05-07 16:37 | 50.04597 | 8.58589 | 372 ft | 1 kts | 162° |
| 2026-05-07 16:37 | 50.04563 | 8.58606 | 370 ft | 7 kts | 162° |
| 2026-05-07 16:38 | 50.04505 | 8.58617 | 371 ft | 10 kts | 200° |
| 2026-05-07 16:38 | 50.04478 | 8.58547 | 370 ft | 0 kts | 250° |
| 2026-05-07 16:39 | 50.04433 | 8.58357 | 370 ft | 62 kts | 249° |
| 2026-05-07 16:39 | 50.04165 | 8.57246 | 371 ft | 152 kts | 250° |
| 2026-05-07 16:40 | 50.03764 | 8.55567 | 1078 ft | 166 kts | 250° |
| 2026-05-07 16:40 | 50.03357 | 8.53834 | 1931 ft | 178 kts | 251° |
| 2026-05-07 16:40 | 50.02898 | 8.51914 | 2449 ft | 199 kts | 251° |
| 2026-05-07 16:40 | 50.02272 | 8.49933 | 3073 ft | 210 kts | 235° |
| 2026-05-07 16:41 | 50.01135 | 8.48482 | 3829 ft | 215 kts | 208° |
| 2026-05-07 16:41 | 49.99692 | 8.47887 | 4705 ft | 217 kts | 190° |
| 2026-05-07 16:41 | 49.98198 | 8.47559 | 5586 ft | 217 kts | 190° |
| 2026-05-07 16:41 | 49.96700 | 8.47228 | 6435 ft | 219 kts | 190° |
| 2026-05-07 16:42 | 49.95206 | 8.46674 | 7105 ft | 227 kts | 199° |
| 2026-05-07 16:42 | 49.93624 | 8.45941 | 7460 ft | 249 kts | 199° |
| 2026-05-07 16:42 | 49.92019 | 8.44853 | 8097 ft | 255 kts | 218° |
| 2026-05-07 16:42 | 49.90921 | 8.42718 | 8838 ft | 256 kts | 248° |
| 2026-05-07 16:43 | 49.90640 | 8.40052 | 9593 ft | 256 kts | 276° |
| 2026-05-07 16:43 | 49.91239 | 8.37467 | 10310 ft | 259 kts | 304° |
| 2026-05-07 16:43 | 49.92621 | 8.35651 | 11125 ft | 265 kts | 333° |
| 2026-05-07 16:43 | 49.94346 | 8.34478 | 11797 ft | 283 kts | 336° |
| 2026-05-07 16:44 | 49.96241 | 8.33240 | 12203 ft | 307 kts | 336° |
| 2026-05-07 16:44 | 49.98292 | 8.31909 | 12556 ft | 331 kts | 336° |
| 2026-05-07 16:44 | 50.00496 | 8.30491 | 12831 ft | 355 kts | 338° |
| 2026-05-07 16:44 | 50.02940 | 8.29446 | 13214 ft | 373 kts | 349° |
| 2026-05-07 16:45 | 50.05561 | 8.29162 | 13935 ft | 381 kts | 0° |
| 2026-05-07 16:45 | 50.08209 | 8.29670 | 14656 ft | 388 kts | 11° |
| 2026-05-07 16:45 | 50.10813 | 8.30898 | 15375 ft | 393 kts | 17° |
| 2026-05-07 16:45 | 50.13430 | 8.32261 | 16093 ft | 397 kts | 17° |
| 2026-05-07 16:46 | 50.16062 | 8.33639 | 16790 ft | 402 kts | 17° |
| 2026-05-07 16:46 | 50.18693 | 8.35023 | 17483 ft | 406 kts | 17° |
| 2026-05-07 16:46 | 50.21376 | 8.36434 | 18179 ft | 410 kts | 17° |
| 2026-05-07 16:46 | 50.24099 | 8.37865 | 18789 ft | 414 kts | 17° |
| 2026-05-07 16:47 | 50.26832 | 8.39371 | 19390 ft | 418 kts | 21° |
| 2026-05-07 16:47 | 50.29430 | 8.41460 | 19998 ft | 423 kts | 31° |
| 2026-05-07 16:47 | 50.31809 | 8.44232 | 20620 ft | 428 kts | 40° |
| 2026-05-07 16:47 | 50.34035 | 8.47339 | 21236 ft | 432 kts | 40° |
| 2026-05-07 16:48 | 50.36285 | 8.50475 | 21848 ft | 434 kts | 40° |
| 2026-05-07 16:48 | 50.38553 | 8.53634 | 22455 ft | 438 kts | 40° |
| 2026-05-07 16:48 | 50.40844 | 8.56820 | 23032 ft | 442 kts | 40° |
| 2026-05-07 16:48 | 50.43152 | 8.60029 | 23610 ft | 445 kts | 40° |
| 2026-05-07 16:49 | 50.45482 | 8.63257 | 24097 ft | 449 kts | 40° |
| 2026-05-07 16:49 | 50.47863 | 8.66460 | 24604 ft | 451 kts | 39° |
| 2026-05-07 16:49 | 50.50277 | 8.69629 | 25091 ft | 454 kts | 38° |
| 2026-05-07 16:49 | 50.52719 | 8.72798 | 25592 ft | 457 kts | 38° |
| 2026-05-07 16:50 | 50.55144 | 8.76045 | 26069 ft | 460 kts | 43° |
| 2026-05-07 16:50 | 50.57304 | 8.79783 | 26505 ft | 464 kts | 51° |
| 2026-05-07 16:50 | 50.59096 | 8.84027 | 26922 ft | 467 kts | 60° |
| 2026-05-07 16:50 | 50.60640 | 8.88468 | 27323 ft | 469 kts | 60° |
| 2026-05-07 16:51 | 50.62197 | 8.92968 | 27832 ft | 469 kts | 60° |
| 2026-05-07 16:51 | 50.63756 | 8.97476 | 28410 ft | 467 kts | 60° |
| 2026-05-07 16:51 | 50.65304 | 9.01956 | 29000 ft | 465 kts | 60° |
| 2026-05-07 16:51 | 50.66847 | 9.06421 | 29559 ft | 464 kts | 60° |
| 2026-05-07 16:52 | 50.68384 | 9.10874 | 30139 ft | 462 kts | 60° |
| 2026-05-07 16:52 | 50.69917 | 9.15326 | 30624 ft | 461 kts | 60° |
| 2026-05-07 16:52 | 50.71355 | 9.19853 | 30967 ft | 462 kts | 66° |
| 2026-05-07 16:53 | 50.73109 | 9.29550 | 31060 ft | 458 kts | 76° |
| 2026-05-07 16:53 | 50.74567 | 9.39322 | 31058 ft | 457 kts | 76° |
| 2026-05-07 16:54 | 50.76030 | 9.49108 | 31060 ft | 457 kts | 76° |
| 2026-05-07 16:54 | 50.77483 | 9.58874 | 31059 ft | 457 kts | 76° |
| 2026-05-07 16:55 | 50.78930 | 9.68604 | 31060 ft | 457 kts | 76° |
| 2026-05-07 16:55 | 50.80376 | 9.78400 | 31063 ft | 458 kts | 76° |
| 2026-05-07 16:56 | 50.81810 | 9.88196 | 31066 ft | 458 kts | 76° |
| 2026-05-07 16:56 | 50.83955 | 10.02919 | 31070 ft | 458 kts | 78° |
| 2026-05-07 16:57 | 50.84348 | 10.12926 | 31068 ft | 458 kts | 95° |
| 2026-05-07 16:57 | 50.83754 | 10.22969 | 31068 ft | 458 kts | 95° |
| 2026-05-07 16:58 | 50.83178 | 10.33002 | 31065 ft | 458 kts | 95° |
| 2026-05-07 16:58 | 50.82599 | 10.42978 | 31071 ft | 457 kts | 95° |
| 2026-05-07 16:59 | 50.82006 | 10.52987 | 31082 ft | 456 kts | 95° |
| 2026-05-07 16:59 | 50.81395 | 10.62955 | 31086 ft | 456 kts | 95° |
| 2026-05-07 17:00 | 50.81686 | 10.72920 | 31080 ft | 455 kts | 78° |
| 2026-05-07 17:00 | 50.83913 | 10.82254 | 31091 ft | 454 kts | 62° |
| 2026-05-07 17:01 | 50.86908 | 10.91044 | 31110 ft | 452 kts | 62° |
| 2026-05-07 17:01 | 50.89825 | 10.99752 | 31109 ft | 450 kts | 62° |
| 2026-05-07 17:02 | 50.92757 | 11.08528 | 31106 ft | 450 kts | 62° |
| 2026-05-07 17:02 | 50.95671 | 11.17282 | 31101 ft | 449 kts | 62° |
| 2026-05-07 17:03 | 50.98589 | 11.26062 | 31076 ft | 449 kts | 62° |
| 2026-05-07 17:03 | 51.01506 | 11.34826 | 31076 ft | 449 kts | 62° |
| 2026-05-07 17:04 | 51.04409 | 11.43590 | 31101 ft | 448 kts | 62° |
| 2026-05-07 17:04 | 51.07296 | 11.52349 | 31084 ft | 447 kts | 62° |
| 2026-05-07 17:05 | 51.10173 | 11.61116 | 31069 ft | 448 kts | 62° |
| 2026-05-07 17:05 | 51.13045 | 11.69915 | 31061 ft | 448 kts | 62° |
| 2026-05-07 17:06 | 51.15888 | 11.78671 | 31058 ft | 448 kts | 62° |
| 2026-05-07 17:06 | 51.18744 | 11.87498 | 31058 ft | 448 kts | 62° |
| 2026-05-07 17:07 | 51.21945 | 11.96002 | 31059 ft | 448 kts | 51° |
| 2026-05-07 17:07 | 51.26200 | 12.03303 | 31069 ft | 449 kts | 46° |
| 2026-05-07 17:08 | 51.30509 | 12.10534 | 31075 ft | 449 kts | 46° |
| 2026-05-07 17:08 | 51.34780 | 12.17744 | 31075 ft | 449 kts | 46° |
| 2026-05-07 17:09 | 51.39076 | 12.25008 | 31096 ft | 449 kts | 46° |
| 2026-05-07 17:09 | 51.43376 | 12.32304 | 31087 ft | 449 kts | 46° |
| 2026-05-07 17:10 | 51.47662 | 12.39604 | 31081 ft | 450 kts | 46° |
| 2026-05-07 17:10 | 51.51949 | 12.46914 | 31076 ft | 450 kts | 46° |
| 2026-05-07 17:11 | 51.56224 | 12.54243 | 31074 ft | 450 kts | 47° |
| 2026-05-07 17:11 | 51.60494 | 12.61582 | 31069 ft | 450 kts | 47° |
| 2026-05-07 17:12 | 51.64772 | 12.68951 | 31066 ft | 450 kts | 47° |
| 2026-05-07 17:12 | 51.69021 | 12.76287 | 31067 ft | 451 kts | 47° |
| 2026-05-07 17:13 | 51.71155 | 12.79979 | 30864 ft | 450 kts | 47° |
| 2026-05-07 17:13 | 51.73271 | 12.83650 | 29673 ft | 443 kts | 47° |
| 2026-05-07 17:13 | 51.75361 | 12.87289 | 28360 ft | 442 kts | 47° |
| 2026-05-07 17:13 | 51.77409 | 12.91003 | 27083 ft | 444 kts | 51° |
| 2026-05-07 17:14 | 51.79179 | 12.95139 | 25852 ft | 448 kts | 58° |
| 2026-05-07 17:14 | 51.80797 | 12.99462 | 24672 ft | 453 kts | 58° |
| 2026-05-07 17:14 | 51.82426 | 13.03820 | 23497 ft | 451 kts | 58° |
| 2026-05-07 17:14 | 51.84050 | 13.08164 | 22181 ft | 449 kts | 58° |
| 2026-05-07 17:15 | 51.85661 | 13.12475 | 20937 ft | 447 kts | 58° |
| 2026-05-07 17:15 | 51.87244 | 13.16713 | 19761 ft | 444 kts | 58° |
| 2026-05-07 17:15 | 51.88836 | 13.20978 | 18632 ft | 440 kts | 59° |
| 2026-05-07 17:15 | 51.90416 | 13.25214 | 17385 ft | 436 kts | 59° |
| 2026-05-07 17:16 | 51.91974 | 13.29397 | 16178 ft | 431 kts | 59° |
| 2026-05-07 17:16 | 51.93491 | 13.33477 | 15043 ft | 416 kts | 59° |
| 2026-05-07 17:16 | 51.94967 | 13.37464 | 13974 ft | 408 kts | 59° |
| 2026-05-07 17:16 | 51.96416 | 13.41387 | 12834 ft | 401 kts | 58° |
| 2026-05-07 17:17 | 51.98173 | 13.44697 | 12206 ft | 372 kts | 38° |
| 2026-05-07 17:17 | 52.00318 | 13.46644 | 11782 ft | 338 kts | 18° |
| 2026-05-07 17:17 | 52.02522 | 13.47269 | 11422 ft | 309 kts | 359° |
| 2026-05-07 17:17 | 52.04582 | 13.46779 | 11026 ft | 296 kts | 341° |
| 2026-05-07 17:18 | 52.06406 | 13.45374 | 10638 ft | 292 kts | 325° |
| 2026-05-07 17:18 | 52.07957 | 13.43268 | 10243 ft | 290 kts | 311° |
| 2026-05-07 17:18 | 52.09208 | 13.40714 | 9828 ft | 288 kts | 306° |
| 2026-05-07 17:18 | 52.10020 | 13.38970 | 9526 ft | 286 kts | 306° |
| 2026-05-07 17:19 | 52.11208 | 13.36414 | 9072 ft | 279 kts | 308° |
| 2026-05-07 17:19 | 52.12354 | 13.33945 | 8630 ft | 269 kts | 308° |
| 2026-05-07 17:19 | 52.13464 | 13.31549 | 8196 ft | 261 kts | 308° |
| 2026-05-07 17:19 | 52.14555 | 13.29191 | 7761 ft | 262 kts | 308° |
| 2026-05-07 17:20 | 52.15652 | 13.26812 | 7326 ft | 259 kts | 308° |
| 2026-05-07 17:20 | 52.16712 | 13.24505 | 6928 ft | 247 kts | 309° |
| 2026-05-07 17:20 | 52.17698 | 13.22357 | 6520 ft | 235 kts | 309° |
| 2026-05-07 17:20 | 52.18657 | 13.20270 | 6061 ft | 225 kts | 309° |
| 2026-05-07 17:21 | 52.19596 | 13.18260 | 5591 ft | 213 kts | 312° |
| 2026-05-07 17:21 | 52.20760 | 13.17020 | 5104 ft | 200 kts | 347° |
| 2026-05-07 17:21 | 52.22124 | 13.16939 | 4594 ft | 195 kts | 3° |
| 2026-05-07 17:21 | 52.23474 | 13.17005 | 4082 ft | 192 kts | 4° |
| 2026-05-07 17:22 | 52.24778 | 13.17059 | 3747 ft | 182 kts | 4° |
| 2026-05-07 17:22 | 52.26009 | 13.17260 | 3489 ft | 176 kts | 16° |
| 2026-05-07 17:22 | 52.27100 | 13.18112 | 3313 ft | 174 kts | 37° |
| 2026-05-07 17:22 | 52.27928 | 13.19536 | 3212 ft | 174 kts | 56° |
| 2026-05-07 17:23 | 52.28423 | 13.21313 | 3118 ft | 165 kts | 67° |
| 2026-05-07 17:23 | 52.28845 | 13.23062 | 3043 ft | 168 kts | 67° |
| 2026-05-07 17:23 | 52.29275 | 13.24845 | 2984 ft | 170 kts | 67° |
| 2026-05-07 17:23 | 52.29694 | 13.26585 | 2840 ft | 159 kts | 67° |
| 2026-05-07 17:24 | 52.30079 | 13.28191 | 2652 ft | 143 kts | 67° |
| 2026-05-07 17:24 | 52.30420 | 13.29610 | 2470 ft | 129 kts | 67° |
| 2026-05-07 17:24 | 52.30739 | 13.30939 | 2296 ft | 122 kts | 66° |
| 2026-05-07 17:24 | 52.31041 | 13.32195 | 2135 ft | 118 kts | 66° |
| 2026-05-07 17:25 | 52.31339 | 13.33439 | 1971 ft | 117 kts | 66° |
| 2026-05-07 17:25 | 52.31637 | 13.34680 | 1810 ft | 117 kts | 66° |
| 2026-05-07 17:25 | 52.31935 | 13.35924 | 1652 ft | 118 kts | 67° |
| 2026-05-07 17:25 | 52.32234 | 13.37174 | 1492 ft | 119 kts | 67° |
| 2026-05-07 17:26 | 52.32535 | 13.38431 | 1325 ft | 119 kts | 66° |
| 2026-05-07 17:26 | 52.32835 | 13.39692 | 1143 ft | 119 kts | 66° |
| 2026-05-07 17:26 | 52.33132 | 13.40955 | 977 ft | 119 kts | 66° |
| 2026-05-07 17:26 | 52.33442 | 13.42210 | 791 ft | 119 kts | 66° |
| 2026-05-07 17:27 | 52.33736 | 13.43480 | 652 ft | 120 kts | 71° |
| 2026-05-07 17:27 | 52.34039 | 13.44757 | 470 ft | 120 kts | 68° |
| 2026-05-07 17:27 | 52.34354 | 13.46028 | 315 ft | 120 kts | 70° |
| 2026-05-07 17:27 | 52.34650 | 13.47295 | 172 ft | 114 kts | 70° |
| 2026-05-07 17:28 | 52.34899 | 13.48350 | 156 ft | 78 kts | 68° |
| 2026-05-07 17:28 | 52.35042 | 13.48947 | 153 ft | 45 kts | 69° |
| 2026-05-07 17:28 | 52.35167 | 13.49271 | 156 ft | 31 kts | 43° |
| 2026-05-07 17:28 | 52.35282 | 13.49428 | 158 ft | 12 kts | 39° |
| 2026-05-07 17:29 | 52.35361 | 13.49531 | 158 ft | 16 kts | 38° |
| 2026-05-07 17:29 | 52.35452 | 13.49667 | 158 ft | 19 kts | 61° |
| 2026-05-07 17:29 | 52.35503 | 13.49894 | 158 ft | 23 kts | 69° |
| 2026-05-07 17:29 | 52.35554 | 13.50103 | 158 ft | 19 kts | 69° |
| 2026-05-07 17:30 | 52.35606 | 13.50328 | 158 ft | 23 kts | 69° |
| 2026-05-07 17:30 | 52.35664 | 13.50570 | 159 ft | 10 kts | 68° |
| 2026-05-07 17:30 | 52.35694 | 13.50693 | 159 ft | 14 kts | 68° |
| 2026-05-07 17:30 | 52.35735 | 13.50831 | 159 ft | 13 kts | 39° |
| 2026-05-07 17:31 | 52.35826 | 13.50791 | 159 ft | 16 kts | 339° |
| 2026-05-07 17:31 | 52.35944 | 13.50720 | 159 ft | 20 kts | 338° |
| 2026-05-07 17:31 | 52.36086 | 13.50631 | 159 ft | 24 kts | 340° |
| 2026-05-07 17:31 | 52.36250 | 13.50526 | 159 ft | 26 kts | 339° |
| 2026-05-07 17:32 | 52.36406 | 13.50428 | 159 ft | 14 kts | 340° |
| 2026-05-07 17:32 | 52.36484 | 13.50419 | 159 ft | 11 kts | 40° |
| 2026-05-07 17:32 | 52.36508 | 13.50526 | 159 ft | 3 kts | 75° |
| 2026-05-07 17:32 | 52.36510 | 13.50534 | 159 ft | 0 kts | 75° |